Time;durP1;ratioP1;P1;durP2;ratioP2;P2;SDS_P1;SDS_P2;PMS_P1;PMS_P2;Temp;Humidity;BMP_temperature;BMP_pressure;BME280_temperature;BME280_humidity;BME280_pressure;Samples;Min_cycle;Max_cycle;Signal;HPM_P1;HPM_P2
2022/06/26 00:01:39;;;;;;;11.85;5.28;;;;;;;18.94;86.35;99872.75;5052733;28;20048;-76
2022/06/26 00:04:07;;;;;;;9.85;5.50;;;;;;;18.93;86.50;99876.47;5059309;28;20036;-77
2022/06/26 00:06:37;;;;;;;9.95;5.40;;;;;;;18.85;87.06;99872.72;5071905;28;20049;-75
2022/06/26 00:09:05;;;;;;;9.43;5.47;;;;;;;18.87;87.09;99879.78;5071201;28;20387;-76
2022/06/26 00:11:32;;;;;;;11.48;5.97;;;;;;;18.86;87.32;99875.31;5063605;28;20040;-76
2022/06/26 00:14:00;;;;;;;9.85;5.55;;;;;;;18.81;87.09;99875.72;5060072;28;20041;-76
2022/06/26 00:16:27;;;;;;;10.80;5.50;;;;;;;18.78;87.16;99877.88;5065752;28;20052;-76
2022/06/26 00:18:56;;;;;;;9.45;5.22;;;;;;;18.73;87.53;99878.28;5072563;28;20052;-76
2022/06/26 00:21:23;;;;;;;11.73;5.88;;;;;;;18.79;87.09;99877.72;5069369;28;21661;-76
2022/06/26 00:23:52;;;;;;;11.40;5.53;;;;;;;18.72;87.29;99876.56;5051827;28;20041;-74
2022/06/26 00:26:20;;;;;;;10.35;5.40;;;;;;;18.66;87.52;99888.91;5052703;28;20045;-76
2022/06/26 00:28:48;;;;;;;9.15;5.28;;;;;;;18.66;87.96;99893.53;5052585;28;20061;-76
2022/06/26 00:31:15;;;;;;;10.95;6.03;;;;;;;18.66;87.97;99883.44;5052750;28;20045;-76
2022/06/26 00:33:42;;;;;;;10.77;5.45;;;;;;;18.60;88.28;99883.16;5069049;28;20079;-76
2022/06/26 00:36:10;;;;;;;11.18;5.65;;;;;;;18.59;88.71;99881.41;5074137;28;20043;-76
2022/06/26 00:38:37;;;;;;;12.60;5.30;;;;;;;18.64;88.64;99882.72;5076249;28;20102;-77
2022/06/26 00:41:06;;;;;;;11.05;5.97;;;;;;;18.58;88.42;99885.16;5075772;28;20044;-77
2022/06/26 00:43:34;;;;;;;11.90;5.90;;;;;;;18.49;88.95;99881.38;5058470;28;20404;-77
2022/06/26 00:46:01;;;;;;;9.90;5.53;;;;;;;18.46;89.24;99884.38;5055938;28;20106;-76
2022/06/26 00:48:29;;;;;;;13.48;5.32;;;;;;;18.44;88.69;99878.19;5056211;28;20048;-74
2022/06/26 00:50:57;;;;;;;10.30;5.57;;;;;;;18.37;89.04;99888.78;5068133;28;20445;-75
2022/06/26 00:53:24;;;;;;;11.18;5.47;;;;;;;18.37;88.99;99886.94;5075464;28;20049;-76
2022/06/26 00:55:51;;;;;;;10.32;5.80;;;;;;;18.33;89.14;99895.53;5071017;28;20056;-75
2022/06/26 00:58:21;;;;;;;9.52;5.60;;;;;;;18.37;89.07;99892.41;5071006;28;20438;-75
2022/06/26 01:00:48;;;;;;;11.38;6.10;;;;;;;18.32;89.34;99889.19;5055590;28;20049;-76
2022/06/26 01:03:16;;;;;;;11.30;6.07;;;;;;;18.28;89.70;99889.59;5055902;28;20049;-75
2022/06/26 01:05:43;;;;;;;9.88;5.80;;;;;;;18.27;89.93;99890.59;5055422;28;20044;-75
2022/06/26 01:08:11;;;;;;;10.43;6.00;;;;;;;18.22;90.13;99897.34;5055528;28;20499;-76
2022/06/26 01:10:39;;;;;;;9.68;5.80;;;;;;;18.16;90.27;99892.44;5073075;28;20047;-74
2022/06/26 01:13:07;;;;;;;11.25;5.75;;;;;;;18.19;90.39;99892.16;5075060;28;20047;-75
2022/06/26 01:15:36;;;;;;;9.80;5.65;;;;;;;18.18;90.38;99893.16;5075369;28;20059;-76
2022/06/26 01:18:03;;;;;;;10.35;5.72;;;;;;;18.09;90.62;99894.81;5075490;28;20051;-75
2022/06/26 01:20:31;;;;;;;10.50;5.90;;;;;;;18.01;90.94;99893.75;5075254;28;20048;-74
2022/06/26 01:23:01;;;;;;;10.07;5.88;;;;;;;18.05;91.17;99900.66;5066339;28;20670;-75
2022/06/26 01:25:44;;;;;;;11.63;6.00;;;;;;;18.00;90.70;99892.84;5070061;28;20052;-76
2022/06/26 01:28:12;;;;;;;11.65;6.00;;;;;;;17.96;90.95;99889.50;5076703;28;20045;-76
2022/06/26 01:30:40;;;;;;;12.27;5.90;;;;;;;17.94;91.27;99899.72;5075388;28;20079;-75
2022/06/26 01:33:08;;;;;;;11.00;5.78;;;;;;;17.94;91.43;99890.63;5075307;28;20126;-75
2022/06/26 01:35:35;;;;;;;10.82;5.93;;;;;;;17.94;91.26;99887.91;5074897;28;20044;-75
2022/06/26 01:38:14;;;;;;;11.63;5.93;;;;;;;17.96;91.06;99894.97;5065269;28;20162;-75
2022/06/26 01:40:44;;;;;;;11.35;6.20;;;;;;;17.91;91.23;99897.25;5056860;28;20056;-75
2022/06/26 01:43:12;;;;;;;11.25;5.93;;;;;;;17.92;91.26;99893.53;5055045;28;20044;-75
2022/06/26 01:45:43;;;;;;;11.93;5.97;;;;;;;17.93;91.20;99902.56;5054973;28;20522;-75
2022/06/26 01:48:10;;;;;;;10.60;6.00;;;;;;;17.87;91.71;99901.25;5055654;28;20040;-76
2022/06/26 01:50:38;;;;;;;12.27;5.78;;;;;;;17.78;91.70;99910.25;5055166;28;20119;-75
2022/06/26 01:53:06;;;;;;;10.80;5.68;;;;;;;17.76;91.59;99909.50;5066824;28;20055;-75
2022/06/26 01:55:35;;;;;;;11.32;6.07;;;;;;;17.71;91.68;99909.88;5055395;28;20041;-75
2022/06/26 01:58:03;;;;;;;9.80;5.90;;;;;;;17.79;91.33;99914.72;5067271;28;20044;-75
2022/06/26 02:00:31;;;;;;;10.68;6.22;;;;;;;17.79;91.30;99918.28;5068221;28;20051;-75
2022/06/26 02:02:59;;;;;;;12.77;6.03;;;;;;;17.73;91.57;99918.81;5054394;28;20049;-74
2022/06/26 02:05:27;;;;;;;11.57;6.20;;;;;;;17.73;91.80;99917.94;5074355;28;20044;-76
2022/06/26 02:07:55;;;;;;;10.23;6.00;;;;;;;17.69;92.17;99922.81;5068588;28;20040;-74
2022/06/26 02:15:57;;;;;;;11.68;6.30;;;;;;;17.74;91.46;99927.88;5053917;28;20102;-73
2022/06/26 02:18:25;;;;;;;10.63;6.10;;;;;;;17.82;90.81;99930.84;5053293;28;20048;-75
2022/06/26 02:20:53;;;;;;;12.98;5.88;;;;;;;17.77;91.19;99936.69;5054423;28;20041;-75
2022/06/26 02:23:21;;;;;;;12.90;6.35;;;;;;;17.80;90.85;99938.28;5055361;28;20064;-76
2022/06/26 02:25:48;;;;;;;13.25;6.10;;;;;;;17.78;90.74;99938.41;5054258;28;20094;-75
2022/06/26 02:28:18;;;;;;;10.02;6.10;;;;;;;17.74;90.73;99949.72;5071113;28;20048;-76
2022/06/26 02:30:46;;;;;;;13.52;6.22;;;;;;;17.72;90.98;99943.50;5074092;28;20052;-76
2022/06/26 02:33:13;;;;;;;11.38;6.25;;;;;;;17.87;90.32;99953.16;5073798;28;20046;-76
2022/06/26 02:35:40;;;;;;;14.38;6.70;;;;;;;17.96;89.58;99952.34;5074067;28;20047;-76
2022/06/26 02:38:08;;;;;;;10.45;6.60;;;;;;;17.92;89.98;99956.34;5073110;28;20048;-75
2022/06/26 02:40:36;;;;;;;10.65;6.03;;;;;;;17.87;90.26;99955.88;5074001;28;20114;-76
2022/06/26 02:43:03;;;;;;;11.93;6.18;;;;;;;17.76;90.45;99964.13;5073148;28;20115;-76
2022/06/26 02:45:32;;;;;;;12.65;6.65;;;;;;;17.61;90.78;99958.94;5073923;28;20403;-76
2022/06/26 02:48:00;;;;;;;10.50;6.35;;;;;;;17.63;91.31;99961.56;5068588;28;20045;-76
2022/06/26 02:50:27;;;;;;;12.77;6.40;;;;;;;17.78;90.69;99962.16;5073834;28;20044;-76
2022/06/26 02:52:56;;;;;;;10.65;6.40;;;;;;;17.85;90.28;99959.72;5065514;28;20044;-76
2022/06/26 02:55:23;;;;;;;14.25;6.20;;;;;;;17.94;89.84;99959.81;5072906;28;20044;-75
2022/06/26 02:57:51;;;;;;;12.63;6.50;;;;;;;17.88;90.12;99963.09;5073099;28;20094;-75
2022/06/26 03:00:18;;;;;;;10.70;6.35;;;;;;;17.95;89.75;99969.75;5073598;28;20052;-76
2022/06/26 03:02:47;;;;;;;10.35;6.60;;;;;;;17.99;89.55;99966.75;5072444;28;20041;-76
2022/06/26 03:05:15;;;;;;;12.45;6.72;;;;;;;18.04;89.45;99964.53;5073556;28;20045;-75
2022/06/26 03:07:42;;;;;;;10.65;6.45;;;;;;;18.05;89.52;99971.72;5071452;28;20098;-75
2022/06/26 03:10:10;;;;;;;10.93;6.35;;;;;;;17.94;90.70;99983.53;5070129;28;20048;-76
2022/06/26 03:12:44;;;;;;;12.32;6.78;;;;;;;17.91;91.67;99981.94;5073030;28;20052;-75
2022/06/26 03:15:12;;;;;;;11.07;6.32;;;;;;;17.79;92.60;99981.13;5073418;28;20040;-75
2022/06/26 03:17:40;;;;;;;11.55;6.47;;;;;;;17.79;92.85;99977.53;5073318;28;20040;-75
2022/06/26 03:20:11;;;;;;;12.57;6.50;;;;;;;17.95;91.99;99988.03;5073348;28;20044;-75
2022/06/26 03:22:38;;;;;;;12.23;6.28;;;;;;;17.85;92.72;99982.47;5073402;28;20052;-75
2022/06/26 03:25:06;;;;;;;10.70;6.50;;;;;;;17.87;92.86;99979.59;5071887;28;20483;-75
2022/06/26 03:27:36;;;;;;;12.68;6.75;;;;;;;17.92;92.15;99989.13;5053301;28;20049;-75
2022/06/26 03:30:04;;;;;;;10.98;6.30;;;;;;;17.98;91.75;99989.63;5052940;28;20040;-74
2022/06/26 03:32:31;;;;;;;11.32;6.32;;;;;;;18.04;91.91;99987.28;5053243;28;20067;-74
2022/06/26 03:34:59;;;;;;;12.98;6.05;;;;;;;18.03;92.30;99998.31;5052966;28;20072;-75
2022/06/26 03:37:28;;;;;;;10.75;6.80;;;;;;;18.10;92.16;99994.06;5053198;28;20052;-74
2022/06/26 03:39:55;;;;;;;11.45;6.53;;;;;;;18.01;92.77;100000.31;5053185;28;20048;-75
2022/06/26 03:42:23;;;;;;;11.40;6.50;;;;;;;18.04;92.79;99998.19;5053183;28;20499;-74
2022/06/26 03:44:51;;;;;;;11.32;5.88;;;;;;;17.93;93.89;99990.88;5058652;28;20041;-75
2022/06/26 03:47:18;;;;;;;10.23;5.90;;;;;;;17.84;93.97;99998.97;5072793;28;20534;-75
2022/06/26 03:49:46;;;;;;;10.25;6.47;;;;;;;17.75;94.69;99996.03;5073193;28;20046;-75
2022/06/26 03:52:14;;;;;;;10.73;6.05;;;;;;;17.94;93.77;100003.53;5072637;28;20102;-75
2022/06/26 03:54:43;;;;;;;9.93;5.90;;;;;;;18.13;92.38;100001.13;5072920;28;20048;-75
2022/06/26 03:57:10;;;;;;;12.65;6.30;;;;;;;18.50;89.49;100004.28;5072198;28;20502;-75
2022/06/26 03:59:38;;;;;;;11.82;6.30;;;;;;;18.65;88.37;100003.94;5071144;28;20079;-75
2022/06/26 04:02:05;;;;;;;11.80;6.20;;;;;;;18.74;87.87;100007.72;5072696;28;20444;-75
2022/06/26 04:04:33;;;;;;;10.95;6.25;;;;;;;18.75;87.45;100004.88;5071999;28;20044;-76
2022/06/26 04:07:00;;;;;;;12.07;6.53;;;;;;;18.78;87.42;100011.94;5063057;28;20040;-75
2022/06/26 04:09:28;;;;;;;11.63;6.88;;;;;;;18.86;86.98;100011.25;5056743;28;20051;-76
2022/06/26 04:11:57;;;;;;;13.38;6.60;;;;;;;18.95;86.84;100010.41;5076754;28;20487;-76
2022/06/26 04:14:24;;;;;;;11.63;6.60;;;;;;;19.07;86.45;100006.63;5076355;28;20051;-75
2022/06/26 04:16:52;;;;;;;12.93;6.35;;;;;;;19.14;86.32;100006.06;5076907;28;20049;-76
2022/06/26 04:19:19;;;;;;;11.40;6.88;;;;;;;19.14;86.59;100003.34;5076627;28;20045;-76
2022/06/26 04:21:47;;;;;;;12.23;6.80;;;;;;;19.23;86.61;100010.72;5062233;28;20053;-75
2022/06/26 04:24:14;;;;;;;12.43;6.68;;;;;;;19.25;86.82;100009.59;5056429;28;20423;-76
2022/06/26 04:26:42;;;;;;;13.30;6.45;;;;;;;19.34;86.90;100012.50;5056563;28;20400;-75
2022/06/26 04:29:11;;;;;;;11.95;6.50;;;;;;;19.37;86.97;100013.06;5056211;28;20063;-75
2022/06/26 04:31:38;;;;;;;11.00;6.70;;;;;;;19.42;87.65;100011.81;5056368;28;20037;-76
2022/06/26 04:34:06;;;;;;;11.43;6.43;;;;;;;19.46;87.82;100016.84;5056251;28;20072;-75
2022/06/26 04:36:33;;;;;;;10.27;6.45;;;;;;;19.54;87.49;100013.41;5056180;28;20047;-75
2022/06/26 04:39:01;;;;;;;13.23;7.10;;;;;;;19.66;86.93;100014.16;5064534;28;20049;-76
2022/06/26 04:41:35;;;;;;;12.07;6.68;;;;;;;19.74;86.99;100017.06;5066987;28;20041;-77
2022/06/26 04:44:05;;;;;;;12.93;6.37;;;;;;;20.00;85.24;100015.66;5075872;28;20051;-76
2022/06/26 04:46:35;;;;;;;13.15;6.07;;;;;;;20.02;85.63;100014.53;5075926;28;20560;-74
2022/06/26 04:49:02;;;;;;;11.32;6.63;;;;;;;20.05;86.35;100010.63;5076012;28;20115;-75
2022/06/26 04:51:30;;;;;;;11.68;6.20;;;;;;;20.08;85.78;100015.81;5064549;28;20049;-74
2022/06/26 04:53:58;;;;;;;11.07;5.85;;;;;;;20.34;84.17;100016.09;5059413;28;20044;-73
2022/06/26 04:56:25;;;;;;;12.45;6.13;;;;;;;20.46;82.44;100013.19;5075997;28;20056;-74
2022/06/26 04:58:54;;;;;;;13.05;5.93;;;;;;;20.44;82.95;100015.22;5057939;28;20049;-74
2022/06/26 05:01:21;;;;;;;11.02;6.35;;;;;;;20.40;83.10;100020.13;5065493;28;20104;-75
2022/06/26 05:03:58;;;;;;;12.25;5.80;;;;;;;20.65;82.88;100023.28;5061789;28;20081;-74
2022/06/26 05:06:27;;;;;;;11.65;6.03;;;;;;;20.83;82.48;100026.16;5070815;28;20049;-75
2022/06/26 05:08:57;;;;;;;9.73;5.40;;;;;;;20.88;82.20;100032.06;5063371;28;20048;-74
2022/06/26 05:11:24;;;;;;;11.30;5.68;;;;;;;21.03;81.94;100026.06;5061215;28;20069;-74
2022/06/26 05:13:52;;;;;;;10.15;5.40;;;;;;;21.18;81.69;100034.69;5068803;28;20048;-74
2022/06/26 05:16:19;;;;;;;9.90;5.35;;;;;;;21.22;81.19;100030.63;5069131;28;20060;-74
2022/06/26 05:18:47;;;;;;;11.38;5.50;;;;;;;21.19;81.92;100031.78;5054759;28;20044;-74
2022/06/26 05:21:16;;;;;;;9.80;5.65;;;;;;;21.32;81.76;100033.34;5055415;28;20048;-75
2022/06/26 05:23:43;;;;;;;11.60;5.63;;;;;;;21.41;81.63;100033.28;5062058;28;20100;-74
2022/06/26 05:26:10;;;;;;;10.77;5.68;;;;;;;21.51;81.15;100035.13;5061478;28;20037;-73
2022/06/26 05:28:38;;;;;;;9.40;5.20;;;;;;;21.51;80.63;100043.38;5059049;28;20131;-74
2022/06/26 05:31:06;;;;;;;9.10;5.28;;;;;;;21.55;79.96;100045.63;5064235;28;20040;-74
2022/06/26 05:33:33;;;;;;;9.70;5.28;;;;;;;21.57;80.17;100048.25;5058418;28;20514;-74
2022/06/26 05:36:01;;;;;;;10.68;5.00;;;;;;;21.71;80.04;100044.16;5051098;28;20045;-74
2022/06/26 05:38:30;;;;;;;11.52;5.15;;;;;;;21.81;79.90;100053.19;5062997;28;20338;-75
2022/06/26 05:40:57;;;;;;;9.38;5.10;;;;;;;21.90;79.43;100043.16;5067523;28;20052;-75
2022/06/26 05:43:25;;;;;;;8.18;4.63;;;;;;;21.94;77.25;100054.69;5071433;28;20102;-76
2022/06/26 05:45:53;;;;;;;11.10;5.07;;;;;;;21.98;77.25;100047.84;5067692;28;20506;-75
2022/06/26 05:48:21;;;;;;;11.70;4.70;;;;;;;22.09;76.47;100046.78;5072033;28;20060;-76
2022/06/26 05:50:49;;;;;;;8.82;4.47;;;;;;;22.23;74.50;100057.25;5071319;28;20141;-78
2022/06/26 05:53:18;;;;;;;9.32;4.60;;;;;;;22.29;73.73;100051.09;5069659;28;20079;-75
2022/06/26 05:55:47;;;;;;;12.95;4.50;;;;;;;22.28;74.23;100056.75;5070275;28;20049;-74
2022/06/26 05:58:14;;;;;;;10.80;4.60;;;;;;;22.33;74.25;100061.78;5050777;28;20123;-77
2022/06/26 06:00:42;;;;;;;10.02;4.57;;;;;;;22.43;72.01;100062.56;5051488;28;20130;-78
2022/06/26 06:03:10;;;;;;;8.55;4.40;;;;;;;22.49;70.94;100061.97;5067741;28;20052;-75
2022/06/26 06:05:38;;;;;;;12.45;3.90;;;;;;;22.53;71.61;100060.63;5071265;28;20048;-75
2022/06/26 06:08:06;;;;;;;9.02;4.40;;;;;;;22.62;71.71;100066.19;5071315;28;20059;-75
2022/06/26 06:10:33;;;;;;;7.10;4.10;;;;;;;22.68;70.62;100063.66;5070458;28;20049;-76
2022/06/26 06:13:03;;;;;;;7.40;3.78;;;;;;;22.72;69.34;100072.47;5070996;28;20052;-74
2022/06/26 06:15:30;;;;;;;8.48;3.80;;;;;;;22.76;68.82;100068.38;5070916;28;20411;-74
2022/06/26 06:17:57;;;;;;;8.13;4.25;;;;;;;22.88;69.33;100070.84;5051663;28;20045;-75
2022/06/26 06:20:25;;;;;;;8.65;3.90;;;;;;;22.97;69.71;100076.25;5064271;28;20048;-74
2022/06/26 06:22:54;;;;;;;8.55;3.70;;;;;;;23.05;68.97;100069.97;5059425;28;20051;-74
2022/06/26 06:25:23;;;;;;;10.93;3.60;;;;;;;23.12;67.58;100076.53;5070140;28;20542;-76
2022/06/26 06:27:51;;;;;;;8.38;3.70;;;;;;;23.13;66.27;100078.25;5069477;28;20117;-76
2022/06/26 06:30:20;;;;;;;8.65;3.92;;;;;;;23.23;66.26;100075.38;5057669;28;20053;-75
2022/06/26 06:32:49;;;;;;;8.80;4.00;;;;;;;23.34;66.58;100076.16;5066821;28;20044;-76
2022/06/26 06:35:16;;;;;;;9.95;3.80;;;;;;;23.36;65.71;100079.63;5068935;28;20044;-76
2022/06/26 06:37:44;;;;;;;8.15;3.92;;;;;;;23.35;65.04;100080.66;5063301;28;20040;-76
2022/06/26 06:40:13;;;;;;;7.88;3.70;;;;;;;23.48;65.16;100085.72;5066372;28;20055;-75
2022/06/26 06:42:42;;;;;;;7.30;4.07;;;;;;;23.50;65.68;100086.41;5068226;28;20470;-75
2022/06/26 06:45:11;;;;;;;7.22;3.40;;;;;;;23.61;64.20;100080.59;5058016;28;20049;-75
2022/06/26 06:47:40;;;;;;;11.27;4.03;;;;;;;23.66;64.17;100080.09;5058655;28;20055;-75
2022/06/26 06:50:08;;;;;;;7.00;3.50;;;;;;;23.68;63.57;100084.41;5063685;28;20052;-74
2022/06/26 06:52:36;;;;;;;6.90;3.90;;;;;;;23.88;63.19;100084.16;5055004;28;20052;-76
2022/06/26 06:55:04;;;;;;;8.88;3.80;;;;;;;23.90;62.71;100081.22;5054226;28;20799;-76
2022/06/26 06:57:32;;;;;;;8.30;3.65;;;;;;;23.90;61.36;100082.09;5065876;28;20051;-73
2022/06/26 06:59:59;;;;;;;7.53;3.83;;;;;;;24.02;61.96;100085.41;5070132;28;20048;-74
2022/06/26 07:02:31;;;;;;;10.45;3.83;;;;;;;24.06;62.39;100089.53;5067189;28;20044;-72
2022/06/26 07:05:01;;;;;;;9.13;3.92;;;;;;;24.22;61.98;100083.19;5070855;28;20386;-74
2022/06/26 07:07:28;;;;;;;8.55;4.00;;;;;;;24.24;62.15;100089.41;5069451;28;20040;-73
2022/06/26 07:09:56;;;;;;;9.38;3.72;;;;;;;24.29;60.93;100089.78;5062525;28;20063;-75
2022/06/26 07:12:24;;;;;;;8.60;3.47;;;;;;;24.29;59.24;100092.56;5066290;28;20048;-75
2022/06/26 07:14:51;;;;;;;7.45;3.58;;;;;;;24.42;59.21;100085.66;5066979;28;20052;-75
2022/06/26 07:17:19;;;;;;;9.13;3.40;;;;;;;24.41;59.19;100092.22;5058882;28;20052;-76
2022/06/26 07:19:46;;;;;;;8.05;3.20;;;;;;;24.41;58.59;100092.22;5068529;28;20044;-75
2022/06/26 07:22:15;;;;;;;8.25;3.60;;;;;;;24.48;59.08;100097.88;5068891;28;20079;-74
2022/06/26 07:24:43;;;;;;;6.75;3.65;;;;;;;24.62;59.48;100088.06;5069469;28;20522;-74
2022/06/26 07:27:10;;;;;;;8.07;3.25;;;;;;;24.65;57.84;100088.59;5069708;28;20044;-74
2022/06/26 07:29:38;;;;;;;5.82;3.10;;;;;;;24.76;58.28;100090.19;5069734;28;20044;-72
2022/06/26 07:32:06;;;;;;;10.23;3.53;;;;;;;24.78;57.50;100092.75;5068264;28;20047;-74
2022/06/26 07:34:34;;;;;;;8.98;3.20;;;;;;;24.77;55.73;100091.91;5068756;28;20098;-72
2022/06/26 07:37:01;;;;;;;6.55;3.05;;;;;;;24.80;54.21;100085.16;5069189;28;20044;-75
2022/06/26 07:39:30;;;;;;;7.53;3.50;;;;;;;24.87;54.13;100086.19;5068975;28;20444;-75
2022/06/26 07:41:58;;;;;;;8.55;3.50;;;;;;;25.05;54.31;100085.13;5070730;28;20491;-77
2022/06/26 07:44:25;;;;;;;7.03;3.40;;;;;;;24.96;55.04;100081.53;5072586;28;20094;-74
2022/06/26 07:46:53;;;;;;;7.13;3.35;;;;;;;25.00;55.28;100085.66;5072894;28;20068;-74
2022/06/26 07:49:20;;;;;;;6.30;3.22;;;;;;;25.16;55.23;100080.13;5071477;28;20059;-75
2022/06/26 07:51:48;;;;;;;8.05;3.40;;;;;;;25.15;53.59;100075.63;5072681;28;20045;-75
2022/06/26 07:54:16;;;;;;;9.35;3.47;;;;;;;25.16;52.71;100080.13;5062148;28;20049;-75
2022/06/26 07:56:46;;;;;;;10.88;3.60;;;;;;;25.19;52.27;100083.56;5052948;28;20423;-73
2022/06/26 07:59:14;;;;;;;7.13;3.47;;;;;;;25.14;52.28;100076.66;5066525;28;20048;-74
2022/06/26 08:01:41;;;;;;;8.48;3.50;;;;;;;25.13;52.04;100077.72;5060035;28;20048;-74
2022/06/26 08:04:10;;;;;;;9.30;3.38;;;;;;;25.14;52.61;100076.66;5057011;28;20083;-75
2022/06/26 08:06:37;;;;;;;8.55;3.42;;;;;;;25.29;53.76;100073.16;5055575;28;20107;-75
2022/06/26 08:09:05;;;;;;;8.40;3.60;;;;;;;25.41;52.45;100077.25;5061873;28;20101;-76
2022/06/26 08:11:34;;;;;;;8.35;3.47;;;;;;;25.43;51.53;100074.34;5059355;28;20049;-72
2022/06/26 08:14:03;;;;;;;6.57;3.40;;;;;;;25.56;51.65;100077.41;5056232;28;20052;-73
2022/06/26 08:16:31;;;;;;;7.55;3.30;;;;;;;25.53;51.73;100080.53;5055018;28;20056;-72
2022/06/26 08:18:58;;;;;;;7.75;3.40;;;;;;;25.53;51.49;100076.94;5059244;28;20442;-73
2022/06/26 08:24:11;;;;;;;8.40;3.35;;;;;;;25.39;51.25;100073.81;5062736;28;20679;-72
2022/06/26 08:26:39;;;;;;;6.43;3.22;;;;;;;25.69;51.46;100082.38;5054631;28;20048;-72
2022/06/26 08:29:20;;;;;;;8.80;3.50;;;;;;;25.67;50.26;100070.63;5058403;28;20106;-74
2022/06/26 08:31:51;;;;;;;6.57;3.50;;;;;;;25.73;50.66;100075.44;5057950;28;20053;-73
2022/06/26 08:34:20;;;;;;;5.88;3.40;;;;;;;25.80;51.12;100074.72;5057754;28;20041;-74
2022/06/26 08:36:48;;;;;;;7.88;3.40;;;;;;;25.99;50.16;100071.50;5057141;28;20044;-75
2022/06/26 08:39:15;;;;;;;7.03;3.33;;;;;;;26.11;50.14;100073.84;5057395;28;20088;-72
2022/06/26 08:41:45;;;;;;;5.50;3.20;;;;;;;26.16;50.49;100080.59;5056280;28;20052;-74
2022/06/26 08:44:13;;;;;;;6.82;3.15;;;;;;;26.14;49.03;100079.03;5054135;28;20053;-74
2022/06/26 08:46:44;;;;;;;7.47;3.45;;;;;;;26.07;49.69;100078.88;5054595;28;20075;-74
2022/06/26 08:49:15;;;;;;;6.57;3.40;;;;;;;26.16;50.38;100082.50;5056234;28;20041;-72
2022/06/26 08:51:45;;;;;;;6.65;3.65;;;;;;;26.35;50.49;100080.31;5055231;28;20491;-71
2022/06/26 08:54:13;;;;;;;8.45;3.67;;;;;;;26.42;49.84;100078.53;5053994;28;20037;-71
2022/06/26 08:56:43;;;;;;;6.80;3.55;;;;;;;26.42;49.05;100071.06;5061974;28;20048;-70
2022/06/26 08:59:11;;;;;;;6.63;3.50;;;;;;;26.59;49.08;100079.25;5058521;28;20052;-71
2022/06/26 09:01:40;;;;;;;7.97;3.55;;;;;;;26.46;48.65;100079.88;5062793;28;20061;-72
2022/06/26 09:04:09;;;;;;;8.50;3.50;;;;;;;26.60;48.53;100075.44;5061291;28;20049;-70
2022/06/26 09:06:37;;;;;;;7.28;3.42;;;;;;;26.63;48.36;100076.97;5060984;28;20044;-72
2022/06/26 09:09:14;;;;;;;9.85;3.58;;;;;;;26.52;46.77;100068.06;5057680;28;20052;-73
2022/06/26 09:11:41;;;;;;;6.45;3.30;;;;;;;26.58;47.89;100070.06;5057313;28;20075;-73
2022/06/26 09:14:09;;;;;;;8.50;3.67;;;;;;;26.22;47.09;100069.84;5055675;28;20045;-73
2022/06/26 09:16:38;;;;;;;7.63;3.45;;;;;;;26.27;47.30;100067.38;5055277;28;20041;-72
2022/06/26 09:19:12;;;;;;;8.77;3.70;;;;;;;26.43;46.52;100067.25;5062829;28;20049;-72
2022/06/26 09:21:40;;;;;;;8.55;3.53;;;;;;;26.46;46.50;100071.56;5059151;28;20048;-73
2022/06/26 09:24:10;;;;;;;7.82;3.70;;;;;;;26.58;45.17;100067.31;5060842;28;20491;-73
2022/06/26 09:26:38;;;;;;;6.38;3.38;;;;;;;26.48;44.91;100075.00;5063023;28;20561;-72
2022/06/26 09:29:10;;;;;;;11.82;3.70;;;;;;;26.44;45.62;100068.13;5067598;28;20086;-73
2022/06/26 09:31:38;;;;;;;6.53;3.50;;;;;;;26.59;45.63;100060.72;5061976;28;20076;-72
2022/06/26 09:34:06;;;;;;;6.55;3.30;;;;;;;26.73;45.52;100055.44;5056367;28;20137;-73
2022/06/26 09:36:35;;;;;;;7.30;3.60;;;;;;;26.85;46.09;100064.16;5050923;28;20060;-72
2022/06/26 09:39:07;;;;;;;7.07;3.38;;;;;;;26.97;47.10;100064.56;5069862;28;20056;-72
2022/06/26 09:41:36;;;;;;;5.85;3.40;;;;;;;27.01;46.50;100069.53;5071042;28;20048;-72
2022/06/26 09:44:04;;;;;;;9.02;3.85;;;;;;;26.76;45.39;100064.19;5064460;28;20098;-72
2022/06/26 09:46:33;;;;;;;7.43;3.58;;;;;;;26.74;45.85;100068.22;5065257;28;20060;-72
2022/06/26 09:49:01;;;;;;;7.45;3.50;;;;;;;26.81;47.17;100063.66;5054261;28;20094;-72
2022/06/26 09:51:29;;;;;;;7.50;3.50;;;;;;;27.07;46.51;100058.75;5070381;28;20044;-72
2022/06/26 09:53:59;;;;;;;7.80;3.60;;;;;;;26.99;44.52;100066.09;5058958;28;20784;-72
2022/06/26 09:56:26;;;;;;;6.32;3.50;;;;;;;27.10;44.22;100067.53;5067108;28;20056;-72
2022/06/26 09:58:54;;;;;;;8.15;3.80;;;;;;;27.14;44.44;100060.59;5053296;28;20344;-71
2022/06/26 10:06:52;;;;;;;7.47;3.77;;;;;;;27.33;44.82;100055.50;5062375;28;20048;-72
2022/06/26 10:09:21;;;;;;;7.00;3.58;;;;;;;27.16;44.94;100052.94;5061017;28;20056;-71
2022/06/26 10:11:49;;;;;;;8.32;3.90;;;;;;;27.54;45.05;100057.53;5055379;28;20037;-73
2022/06/26 10:14:19;;;;;;;8.98;3.50;;;;;;;27.55;44.88;100058.41;5060808;28;20051;-72
2022/06/26 10:17:22;;;;;;;6.70;3.40;;;;;;;27.59;43.23;100056.97;5059053;28;20037;-72
2022/06/26 10:19:53;;;;;;;5.78;3.50;;;;;;;27.24;43.91;100060.28;4974268;28;20043;-72
2022/06/26 10:22:21;;;;;;;7.30;3.40;;;;;;;27.04;44.89;100051.66;4975221;28;20178;-71
2022/06/26 10:24:51;;;;;;;6.80;3.45;;;;;;;27.33;43.89;100047.19;4984150;28;20058;-72
2022/06/26 10:27:24;;;;;;;8.40;3.60;;;;;;;27.52;44.05;100053.22;4974020;28;20059;-72
2022/06/26 10:30:05;;;;;;;7.00;3.65;;;;;;;27.57;43.63;100046.06;4974839;28;20046;-73
2022/06/26 10:32:33;;;;;;;6.78;3.40;;;;;;;27.30;43.57;100044.81;4972863;28;20050;-71
2022/06/26 10:35:00;;;;;;;7.80;3.58;;;;;;;27.47;44.10;100043.53;4972716;28;20062;-72
2022/06/26 10:37:28;;;;;;;7.78;3.42;;;;;;;27.55;44.01;100041.78;4980416;28;20143;-72
2022/06/26 10:40:00;;;;;;;7.25;3.80;;;;;;;27.59;43.67;100040.31;4977238;28;20081;-72
2022/06/26 10:45:15;;;;;;;6.28;3.33;;;;;;;27.40;44.91;100048.13;4975569;28;20057;-73
2022/06/26 10:47:48;;;;;;;8.65;3.75;;;;;;;27.28;44.58;100041.38;4976213;28;20062;-73
2022/06/26 10:50:33;;;;;;;8.82;3.60;;;;;;;27.27;45.81;100047.97;4969581;28;20855;-72
2022/06/26 10:53:13;;;;;;;;;;;;;;;27.45;45.64;100051.19;4988645;28;20047;-74
2022/06/26 10:55:43;;;;;;;8.35;3.80;;;;;;;27.50;44.85;100044.19;5057331;28;19932;-74
2022/06/26 10:58:20;;;;;;;7.47;3.42;;;;;;;27.63;44.06;100044.44;5062764;28;20066;-72
2022/06/26 11:00:48;;;;;;;8.40;3.70;;;;;;;27.90;44.39;100042.84;5061860;28;20090;-72
2022/06/26 11:03:17;;;;;;;6.53;3.40;;;;;;;28.07;43.99;100031.47;5062119;28;20048;-72
2022/06/26 11:05:55;;;;;;;6.80;3.80;;;;;;;28.04;43.16;100029.97;5059052;28;20531;-72
2022/06/26 11:08:24;;;;;;;6.70;3.70;;;;;;;28.11;42.38;100030.03;5061735;28;20071;-72
2022/06/26 11:10:53;;;;;;;6.97;3.60;;;;;;;28.15;43.50;100038.84;5060216;28;20045;-72
2022/06/26 11:13:20;;;;;;;9.20;3.80;;;;;;;28.37;43.32;100036.09;5057391;28;20450;-72
2022/06/26 11:15:48;;;;;;;9.85;3.80;;;;;;;28.45;43.32;100034.03;5061732;28;20041;-72
2022/06/26 11:18:15;;;;;;;7.93;3.70;;;;;;;28.29;42.21;100037.94;5056321;28;20051;-72
2022/06/26 11:20:47;;;;;;;6.15;3.50;;;;;;;28.41;42.08;100026.31;5052448;28;20055;-72
2022/06/26 11:23:18;;;;;;;8.88;3.33;;;;;;;28.44;42.56;100028.69;5057418;28;20105;-72
2022/06/26 11:25:46;;;;;;;7.80;3.40;;;;;;;28.41;42.56;100040.19;5063197;28;20076;-72
2022/06/26 11:28:16;;;;;;;7.32;3.80;;;;;;;28.02;41.87;100033.97;5053649;28;20052;-72
2022/06/26 11:30:46;;;;;;;9.55;3.50;;;;;;;28.08;42.03;100029.56;5054439;28;20045;-72
2022/06/26 11:33:14;;;;;;;8.63;3.55;;;;;;;27.95;42.74;100031.16;5056279;28;20053;-73
2022/06/26 11:35:41;;;;;;;7.20;3.38;;;;;;;27.89;42.69;100037.47;5059688;28;20051;-72
2022/06/26 11:38:11;;;;;;;6.70;3.45;;;;;;;27.85;43.62;100030.59;5056602;28;20522;-71
2022/06/26 11:40:38;;;;;;;8.15;3.50;;;;;;;27.77;42.97;100034.38;5054621;28;20458;-72
2022/06/26 11:43:06;;;;;;;6.32;3.40;;;;;;;27.59;43.61;100032.84;5058921;28;20453;-72
2022/06/26 11:45:36;;;;;;;7.47;3.42;;;;;;;27.56;44.04;100027.69;5055264;28;20049;-72
2022/06/26 11:48:07;;;;;;;7.00;3.45;;;;;;;27.72;44.28;100026.63;5049025;28;20068;-72